Aérodrome :
LOGIN :

S'inscrire | Disclaimer

   EN    FR    IT 

 










Légende :    VFR   VFR Marginal   IFR   IFR Intensif   IFR Très Intensif
Visi : 
Plafond : 
>= 8 km
>= 3000ft
5 à 8 km
1000 à 3000 ft
1500m à 5 km
500 à 1000 ft
800 à 1500m
200 à 500 ft
< 800m
< 200 ft
Symboles :   Orages  Brouillard  Fortes neiges  Fortes précipitations  Vent > 20 kt
SIGMETs :   Divers  Orages  Givrage  Turbulence  Onde Orograph.  Cendres Volcan.







- Altitude de l'aérodrome : 7 ft
- Code IATA : ESH
- Voir les cartes d'approche


EGKA - Shoreham

DERNIER METAR :
  • 011720Z 22003KT 5000 BR SCT004 07/06 Q0998

METARs EXPIRÉS :
  • 011650Z 20003KT 4500 BR FEW004 BKN007 07/06 Q0998
  • 011620Z 18003KT 3500 BR FEW004 BKN006 07/06 Q0998
  • 011550Z 00000KT 3500 BR BKN010 07/06 Q0998
  • 011520Z 20003KT 9999 4000E BR BKN010 07/06 Q0998
  • 011450Z 19005KT 4000 -DZ BKN007 07/06 Q0998

TAF TAF EGKA
Valide du 01 à 18h jusqu'au 01 à 20h UTC


011659Z 0118/0120 23009KT 9999 SCT025
BECMG 0118/0120 26020KT
TEMPO 0118/0120 4500 RA BKN006
ATIS : +44 1273 467 372
Pas de NOTAMs connus pour ce terrain.
1 SIGMET publié pour la FIR London (EGTT) :
 
Turbulence forte
EGTT SIGMET 01 VALID 011630/012000 EGRR
EGTT LONDON FIR SEV TURB FCST SW OF LINE N5113 W00736 - N4945 W00318 SFC/FL060 MOV ENE 25KT INTSF=



MET'MAP, la Météo Aéronautique d'un coup d'oeil ! - Copyright ORBIFLY Décembre 2007 - Disclaimer

ORBIFLY MET'MAP TEAM :

Programmation & Développement : Alexandra Zaïnal
Conception & Développement : Baudouin d'Aumeries
Co-Programmation & Développement : Marc-Olivier Méhu
Soutien technique & logistique : Manuel Goepfert

Contact : metmap@orbifly.com




SOURCES & CREDITS :

   NOAA